Time;durP1;ratioP1;P1;durP2;ratioP2;P2;SDS_P1;SDS_P2;PMS_P1;PMS_P2;Temp;Humidity;BMP_temperature;BMP_pressure;BME280_temperature;BME280_humidity;BME280_pressure;Samples;Min_cycle;Max_cycle;Signal;HPM_P1;HPM_P2
2021/09/08 00:01:14;;;;;;;12.48;8.23;;;19.90;99.90;;;19.70;100.00;100722.72;4182569;28;20078;-68
2021/09/08 00:03:14;;;;;;;8.73;7.82;;;19.90;99.90;;;19.66;100.00;100726.00;4185030;28;20365;-68
2021/09/08 00:05:15;;;;;;;10.43;7.65;;;19.90;99.90;;;19.64;100.00;100731.59;4182930;28;20108;-69
2021/09/08 00:07:16;;;;;;;9.75;7.75;;;19.90;99.90;;;19.70;100.00;100721.88;4184917;28;20017;-68
2021/09/08 00:09:18;;;;;;;8.73;7.93;;;19.90;99.90;;;19.80;100.00;100739.09;4182873;28;20021;-68
2021/09/08 00:11:19;;;;;;;10.13;8.00;;;19.90;99.90;;;19.70;100.00;100732.59;4182126;28;20017;-68
2021/09/08 00:13:21;;;;;;;9.10;8.15;;;19.90;99.90;;;19.56;100.00;100723.81;4184169;28;20025;-68
2021/09/08 00:15:22;;;;;;;8.07;7.25;;;19.90;99.90;;;19.62;100.00;100730.97;4184612;28;20110;-68
2021/09/08 00:17:23;;;;;;;8.10;7.18;;;19.80;99.90;;;19.62;100.00;100730.19;4183538;28;20021;-68
2021/09/08 00:19:23;;;;;;;8.25;7.45;;;19.80;99.90;;;19.64;100.00;100723.56;4183082;28;20029;-69
2021/09/08 00:21:24;;;;;;;12.10;8.13;;;19.80;99.90;;;19.60;100.00;100719.69;4177097;28;20033;-69
2021/09/08 00:23:26;;;;;;;10.82;8.10;;;19.80;99.90;;;19.62;100.00;100725.63;4167482;28;20017;-69
2021/09/08 00:25:27;;;;;;;8.60;7.47;;;19.80;99.90;;;19.61;100.00;100715.16;4165067;28;20018;-68
2021/09/08 00:27:28;;;;;;;9.35;7.40;;;19.80;99.90;;;19.63;100.00;100721.91;4183566;28;20029;-68
2021/09/08 00:29:28;;;;;;;9.23;7.82;;;19.80;99.90;;;19.65;100.00;100719.84;4167393;28;20045;-68
2021/09/08 00:31:29;;;;;;;8.23;7.20;;;19.80;99.90;;;19.63;100.00;100718.41;4185005;28;20051;-68
2021/09/08 00:33:30;;;;;;;8.95;7.90;;;19.80;99.90;;;19.61;100.00;100710.63;4184952;28;20037;-68
2021/09/08 00:35:31;;;;;;;8.70;7.78;;;19.80;99.90;;;19.57;100.00;100712.06;4184980;28;20036;-68
2021/09/08 00:37:32;;;;;;;9.90;8.25;;;19.80;99.90;;;19.58;100.00;100715.56;4184879;28;20029;-68
2021/09/08 00:39:33;;;;;;;8.73;7.30;;;19.80;99.90;;;19.53;100.00;100710.88;4184946;28;20037;-68
2021/09/08 00:41:34;;;;;;;9.77;7.68;;;19.80;99.90;;;19.60;100.00;100722.34;4184892;28;20025;-69
2021/09/08 00:43:35;;;;;;;10.25;7.50;;;19.80;99.90;;;19.63;100.00;100710.38;4184644;28;20112;-68
2021/09/08 00:45:36;;;;;;;9.02;7.63;;;19.80;99.90;;;19.60;100.00;100692.91;4167253;28;20037;-68
2021/09/08 00:47:37;;;;;;;8.88;8.07;;;19.80;99.90;;;19.68;100.00;100703.34;4167231;28;20049;-68
2021/09/08 00:49:38;;;;;;;9.68;7.22;;;19.80;99.90;;;19.57;100.00;100701.38;4185029;28;20035;-68
2021/09/08 00:51:39;;;;;;;8.07;7.28;;;19.80;99.90;;;19.38;100.00;100691.59;4184716;28;20087;-68
2021/09/08 00:53:42;;;;;;;8.40;7.13;;;19.70;99.90;;;19.42;100.00;100705.38;4167215;28;20029;-68
2021/09/08 00:55:45;;;;;;;8.90;7.37;;;19.70;99.90;;;19.44;100.00;100706.81;4167163;28;20025;-68
2021/09/08 00:57:46;;;;;;;9.47;7.53;;;19.70;99.90;;;19.36;100.00;100704.34;4184419;28;20032;-69
2021/09/08 00:59:48;;;;;;;11.88;8.10;;;19.70;99.90;;;19.45;100.00;100707.63;4184651;28;20032;-69
2021/09/08 01:01:49;;;;;;;8.07;6.93;;;19.70;99.90;;;19.49;100.00;100706.16;4184708;28;20021;-69
2021/09/08 01:03:50;;;;;;;10.07;8.27;;;19.70;99.90;;;19.53;100.00;100715.41;4184753;28;20437;-69
2021/09/08 01:05:51;;;;;;;9.38;7.78;;;19.70;99.90;;;19.57;100.00;100727.31;4185628;28;20024;-69
2021/09/08 01:07:52;;;;;;;7.60;6.65;;;19.80;99.90;;;19.57;100.00;100720.09;4187927;28;20055;-69
2021/09/08 01:09:53;;;;;;;8.25;7.45;;;19.80;99.90;;;19.57;100.00;100724.63;4170367;28;20443;-69
2021/09/08 01:11:54;;;;;;;12.35;8.00;;;19.80;99.90;;;19.58;100.00;100742.34;4187778;28;20029;-69
2021/09/08 01:13:55;;;;;;;8.23;6.88;;;19.80;99.90;;;19.54;100.00;100728.56;4187916;28;20158;-69
2021/09/08 01:16:01;;;;;;;8.88;7.95;;;19.80;99.90;;;19.83;100.00;100727.94;4187672;28;20053;-68
2021/09/08 01:18:02;;;;;;;9.70;7.75;;;19.90;99.90;;;19.71;100.00;100715.50;4187657;28;20025;-69
2021/09/08 01:20:04;;;;;;;10.70;7.75;;;19.90;99.90;;;19.65;100.00;100714.47;4187840;28;20108;-68
2021/09/08 01:22:05;;;;;;;9.10;7.50;;;19.90;99.90;;;19.63;100.00;100715.75;4187688;28;20035;-69
2021/09/08 01:24:07;;;;;;;11.20;8.50;;;19.90;99.90;;;19.62;100.00;100714.91;4187728;28;20035;-69
2021/09/08 01:26:09;;;;;;;11.20;7.65;;;19.90;99.90;;;19.61;100.00;100713.28;4187847;28;20025;-69
2021/09/08 01:28:10;;;;;;;10.93;7.50;;;19.90;99.90;;;19.67;100.00;100711.59;4187486;28;20488;-69
2021/09/08 01:30:14;;;;;;;9.30;7.55;;;19.90;99.90;;;19.71;100.00;100708.28;4187652;28;20039;-68
2021/09/08 01:32:15;;;;;;;8.05;7.22;;;19.90;99.90;;;19.68;100.00;100710.59;4187511;28;20036;-68
2021/09/08 01:34:16;;;;;;;8.85;7.97;;;19.90;99.90;;;19.77;100.00;100736.06;4187738;28;20438;-69
2021/09/08 01:36:17;;;;;;;11.43;9.40;;;19.90;99.90;;;19.74;100.00;100723.91;4187605;28;20037;-69
2021/09/08 01:38:18;;;;;;;10.50;9.15;;;19.90;99.90;;;19.84;100.00;100718.91;4187453;28;20033;-69
2021/09/08 01:40:20;;;;;;;10.88;9.77;;;20.00;99.90;;;19.95;100.00;100722.72;4169820;28;20021;-68
2021/09/08 01:42:21;;;;;;;14.30;12.45;;;20.00;99.90;;;19.93;100.00;100726.66;4169446;28;20029;-68
2021/09/08 01:44:24;;;;;;;16.83;12.93;;;20.10;99.90;;;19.94;100.00;100744.38;4162284;28;20528;-68
2021/09/08 01:46:25;;;;;;;18.50;12.93;;;20.10;99.90;;;19.89;100.00;100740.47;4169873;28;20573;-69
2021/09/08 01:48:26;;;;;;;15.82;11.63;;;20.10;99.90;;;19.95;100.00;100740.66;4186361;28;20064;-69
2021/09/08 01:50:27;;;;;;;16.20;12.80;;;20.10;99.90;;;20.02;100.00;100730.72;4187526;28;20547;-68
2021/09/08 01:52:28;;;;;;;18.65;13.48;;;20.20;99.90;;;20.04;100.00;100728.66;4187416;28;20025;-69
2021/09/08 01:54:29;;;;;;;18.27;13.05;;;20.20;99.90;;;20.02;100.00;100726.19;4187348;28;20029;-68
2021/09/08 01:56:30;;;;;;;17.73;13.85;;;20.20;99.90;;;19.99;100.00;100736.50;4187065;28;20021;-68
2021/09/08 01:58:31;;;;;;;17.23;13.60;;;20.20;99.90;;;19.91;100.00;100740.28;4187020;28;20067;-69
2021/09/08 02:00:32;;;;;;;16.60;13.15;;;20.10;99.90;;;19.94;100.00;100749.72;4187246;28;20035;-68
2021/09/08 02:02:34;;;;;;;17.73;13.70;;;20.10;99.90;;;19.92;100.00;100746.47;4187216;28;20067;-69
2021/09/08 02:04:34;;;;;;;18.55;14.02;;;20.10;99.90;;;19.91;100.00;100740.28;4152925;28;20050;-68
2021/09/08 02:06:51;;;;;;;21.17;16.85;;;20.10;99.90;;;19.91;100.00;100742.13;4187190;28;20514;-68
2021/09/08 02:08:57;;;;;;;18.70;15.73;;;20.10;99.90;;;19.93;100.00;100738.19;4187146;28;20039;-69
2021/09/08 02:10:58;;;;;;;20.80;16.10;;;20.10;99.90;;;19.83;100.00;100737.88;4186929;28;20025;-69
2021/09/08 02:12:59;;;;;;;16.88;14.32;;;20.10;99.90;;;19.86;100.00;100735.56;4186874;28;20033;-69
2021/09/08 02:15:00;;;;;;;20.15;14.02;;;20.10;99.90;;;19.89;100.00;100716.38;4186957;28;20116;-68
2021/09/08 02:17:01;;;;;;;24.80;17.05;;;20.10;99.90;;;19.97;100.00;100719.84;4186369;28;20025;-68
2021/09/08 02:19:02;;;;;;;20.75;15.88;;;20.10;99.90;;;19.92;100.00;100707.13;4186379;28;20029;-68
2021/09/08 02:21:03;;;;;;;19.38;16.85;;;20.10;99.90;;;19.82;100.00;100714.81;4186961;28;20036;-69
2021/09/08 02:23:04;;;;;;;22.88;17.00;;;20.10;99.90;;;19.78;100.00;100702.88;4186646;28;20082;-68
2021/09/08 02:25:06;;;;;;;24.95;17.20;;;20.10;99.90;;;19.72;100.00;100704.56;4186864;28;20486;-69
2021/09/08 02:27:07;;;;;;;23.40;17.92;;;20.00;99.90;;;19.72;100.00;100709.09;4186408;28;20032;-69
2021/09/08 02:29:09;;;;;;;20.30;16.42;;;20.10;99.90;;;19.73;100.00;100703.53;4186847;28;20550;-69
2021/09/08 02:31:11;;;;;;;22.73;17.50;;;20.00;99.90;;;19.84;100.00;100718.91;4186763;28;20076;-68
2021/09/08 02:33:12;;;;;;;18.63;16.60;;;20.00;99.90;;;19.83;100.00;100703.06;4186572;28;20029;-69
2021/09/08 02:35:12;;;;;;;21.40;17.77;;;20.00;99.90;;;19.83;100.00;100693.16;4186486;28;20021;-68
2021/09/08 02:37:14;;;;;;;21.88;16.00;;;20.10;99.90;;;19.82;100.00;100672.78;4186536;28;20075;-69
2021/09/08 02:39:14;;;;;;;20.38;17.13;;;20.10;99.90;;;19.89;100.00;100662.84;4186707;28;20032;-69
2021/09/08 02:41:16;;;;;;;19.58;16.27;;;20.10;99.90;;;19.84;100.00;100662.69;4186540;28;20025;-68
2021/09/08 02:43:16;;;;;;;21.75;17.45;;;20.10;99.90;;;19.81;100.00;100671.16;4186140;28;20021;-69
2021/09/08 02:45:17;;;;;;;20.95;16.50;;;20.00;99.90;;;19.83;100.00;100674.41;4186626;28;20052;-68
2021/09/08 02:47:18;;;;;;;23.52;17.35;;;20.10;99.90;;;19.80;100.00;100680.19;4186534;28;20112;-68
2021/09/08 02:49:19;;;;;;;21.17;16.60;;;20.10;99.90;;;19.79;100.00;100667.06;4186393;28;20021;-68
2021/09/08 02:51:20;;;;;;;21.52;17.23;;;20.10;99.90;;;19.81;100.00;100679.19;4186455;28;20025;-69
2021/09/08 02:53:21;;;;;;;23.55;18.42;;;20.10;99.90;;;19.80;100.00;100666.81;4186418;28;20032;-69
2021/09/08 02:55:22;;;;;;;23.40;17.77;;;20.00;99.90;;;19.82;100.00;100678.16;4186438;28;20060;-68
2021/09/08 02:57:23;;;;;;;22.15;16.77;;;20.10;99.90;;;19.84;100.00;100665.34;4186150;28;20056;-68
2021/09/08 02:59:24;;;;;;;25.70;18.85;;;20.00;99.90;;;19.77;100.00;100653.88;4186517;28;20021;-69
2021/09/08 03:01:25;;;;;;;22.30;15.88;;;20.00;99.90;;;19.66;100.00;100646.56;4186134;28;20049;-68
2021/09/08 03:03:26;;;;;;;22.35;16.38;;;20.00;99.90;;;19.61;100.00;100643.72;4186346;28;20032;-68
2021/09/08 03:05:27;;;;;;;21.83;16.13;;;20.00;99.90;;;19.71;100.00;100637.88;4186268;28;20365;-68
2021/09/08 03:07:28;;;;;;;23.88;16.58;;;20.00;99.90;;;19.66;100.00;100635.03;4186171;28;20047;-68
2021/09/08 03:09:28;;;;;;;19.67;15.32;;;19.90;99.90;;;19.73;100.00;100633.94;4186100;28;20021;-68
2021/09/08 03:11:29;;;;;;;21.48;15.25;;;19.90;99.90;;;19.69;100.00;100630.06;4168421;28;20049;-68
2021/09/08 03:13:30;;;;;;;21.40;15.95;;;19.90;99.90;;;19.77;100.00;100637.00;4185881;28;20051;-68
2021/09/08 03:15:32;;;;;;;20.27;15.98;;;19.90;99.90;;;19.74;100.00;100646.28;4185968;28;20048;-68
2021/09/08 03:17:33;;;;;;;22.52;16.02;;;20.00;99.90;;;19.66;100.00;100635.84;4185946;28;20028;-68
2021/09/08 03:19:35;;;;;;;20.73;16.73;;;20.00;99.90;;;19.76;100.00;100662.97;4185965;28;20099;-68
2021/09/08 03:21:36;;;;;;;20.27;15.73;;;20.00;99.90;;;19.72;100.00;100667.09;4186200;28;20435;-68
2021/09/08 03:23:36;;;;;;;18.25;15.05;;;20.00;99.90;;;19.75;100.00;100668.50;4185887;28;20065;-68
2021/09/08 03:25:37;;;;;;;24.40;17.33;;;20.00;99.90;;;19.62;100.00;100669.41;4185849;28;20022;-68
2021/09/08 03:27:40;;;;;;;19.48;15.57;;;20.00;99.90;;;19.66;100.00;100667.13;4185562;28;20033;-68
2021/09/08 03:29:41;;;;;;;19.27;15.88;;;19.90;99.90;;;19.63;100.00;100692.47;4185549;28;20025;-68
2021/09/08 03:31:42;;;;;;;21.73;16.30;;;19.90;99.90;;;19.74;100.00;100723.09;4185773;28;20036;-68
2021/09/08 03:33:43;;;;;;;21.20;16.13;;;19.90;99.90;;;19.80;100.00;100759.72;4185587;28;20029;-68
2021/09/08 03:35:44;;;;;;;20.65;15.82;;;20.00;99.90;;;19.86;100.00;100773.03;4185956;28;20060;-68
2021/09/08 03:37:45;;;;;;;23.65;16.27;;;20.00;99.90;;;19.83;100.00;100743.22;4185451;28;20036;-69
2021/09/08 03:39:46;;;;;;;21.63;16.95;;;20.10;99.90;;;19.78;100.00;100714.41;4168065;28;20034;-68
2021/09/08 03:41:47;;;;;;;19.05;16.52;;;20.10;99.90;;;19.85;100.00;100717.88;4185238;28;20028;-69
2021/09/08 03:43:48;;;;;;;19.23;14.93;;;20.10;99.90;;;19.77;100.00;100742.19;4185670;28;20392;-68
2021/09/08 03:45:49;;;;;;;20.17;16.77;;;20.10;99.90;;;19.74;100.00;100769.41;4185607;28;20025;-69
2021/09/08 03:47:49;;;;;;;22.05;14.35;;;20.10;99.90;;;19.79;100.00;100717.91;4185590;28;20029;-69
2021/09/08 03:49:51;;;;;;;20.77;14.73;;;20.10;99.90;;;19.77;100.00;100702.06;4185448;28;20021;-68
2021/09/08 03:51:53;;;;;;;19.77;13.93;;;20.10;99.90;;;19.87;100.00;100713.09;4184509;28;20037;-68
2021/09/08 03:53:58;;;;;;;15.23;11.65;;;20.20;99.90;;;19.89;100.00;100694.16;4185345;28;20025;-68
2021/09/08 03:55:59;;;;;;;17.15;12.00;;;20.20;99.90;;;19.87;100.00;100686.34;4168134;28;20022;-69
2021/09/08 03:58:00;;;;;;;16.30;12.07;;;20.20;99.90;;;19.83;100.00;100687.00;4183832;28;20033;-68
2021/09/08 04:00:01;;;;;;;17.60;11.23;;;20.30;99.90;;;19.96;100.00;100707.47;4185417;28;20033;-68
2021/09/08 04:02:03;;;;;;;17.30;12.07;;;20.30;99.90;;;19.94;100.00;100739.84;4185388;28;20032;-68
2021/09/08 04:04:04;;;;;;;17.65;10.88;;;20.30;99.90;;;19.93;100.00;100761.47;4167631;28;20104;-68
2021/09/08 04:06:05;;;;;;;14.18;9.25;;;20.30;99.90;;;19.90;100.00;100760.03;4167704;28;20017;-68
2021/09/08 04:08:06;;;;;;;16.67;9.10;;;20.30;99.90;;;19.92;100.00;100733.91;4185186;28;20040;-68
2021/09/08 04:10:08;;;;;;;10.68;8.80;;;20.30;99.90;;;19.94;100.00;100701.53;4185254;28;20029;-68
2021/09/08 04:12:09;;;;;;;10.00;7.40;;;20.30;99.90;;;19.89;100.00;100684.25;4167345;28;20022;-68
2021/09/08 04:14:10;;;;;;;8.43;6.45;;;20.30;99.90;;;19.95;100.00;100697.81;4184894;28;20404;-68
2021/09/08 04:16:11;;;;;;;11.35;7.10;;;20.30;99.90;;;20.00;100.00;100717.56;4184763;28;20060;-68
2021/09/08 04:18:12;;;;;;;8.40;5.32;;;20.40;99.90;;;20.04;99.17;100744.72;4185157;28;20079;-68
2021/09/08 04:20:13;;;;;;;10.52;5.57;;;20.40;99.90;;;20.11;100.00;100753.50;4184909;28;20025;-68
2021/09/08 04:22:14;;;;;;;7.95;4.53;;;20.40;99.90;;;20.09;100.00;100752.91;4185201;28;20021;-68
2021/09/08 04:24:15;;;;;;;7.68;4.18;;;20.40;99.90;;;20.11;99.68;100766.91;4181392;28;20121;-68
2021/09/08 04:26:16;;;;;;;15.93;6.22;;;20.40;99.90;;;19.99;100.00;100816.81;4168601;28;20029;-68
2021/09/08 04:28:17;;;;;;;11.18;4.63;;;20.40;99.90;;;19.99;100.00;100838.25;4178414;28;20033;-69
2021/09/08 04:30:18;;;;;;;9.75;4.90;;;20.30;99.90;;;19.88;100.00;100787.03;4184859;28;20021;-69
2021/09/08 04:32:19;;;;;;;10.98;4.47;;;20.20;99.90;;;19.78;100.00;100730.47;4185065;28;20024;-69
2021/09/08 04:34:20;;;;;;;13.60;5.22;;;20.10;99.90;;;19.79;100.00;100697.31;4184345;28;20025;-69
2021/09/08 04:38:23;;;;;;;9.40;5.30;;;20.10;99.90;;;19.67;100.00;100613.41;4147781;28;20052;-68
2021/09/08 04:40:24;;;;;;;12.40;5.13;;;20.00;99.90;;;19.48;100.00;100570.75;4151995;28;20033;-68
2021/09/08 04:42:25;;;;;;;9.32;5.20;;;19.90;99.90;;;19.35;100.00;100566.31;4152384;28;20514;-68
2021/09/08 04:44:26;;;;;;;9.25;4.93;;;19.90;99.90;;;19.34;100.00;100581.53;4152017;28;20082;-68
2021/09/08 04:46:28;;;;;;;7.68;4.25;;;19.80;99.90;;;19.27;100.00;100612.84;4152245;28;20045;-67
2021/09/08 04:48:29;;;;;;;7.95;4.35;;;19.70;99.90;;;19.23;100.00;100648.25;4152223;28;20048;-68
2021/09/08 04:50:30;;;;;;;8.27;4.70;;;19.60;99.90;;;19.10;100.00;100657.16;4151957;28;20026;-68
2021/09/08 04:52:32;;;;;;;12.25;4.88;;;19.50;99.90;;;19.09;100.00;100635.97;4151851;28;20064;-68
2021/09/08 04:54:33;;;;;;;6.78;3.92;;;19.40;99.90;;;19.06;100.00;100629.22;4152509;28;20370;-68
2021/09/08 04:56:36;;;;;;;6.78;4.53;;;19.40;99.90;;;19.08;100.00;100635.19;4152047;28;20036;-68
2021/09/08 04:58:36;;;;;;;5.93;3.95;;;19.30;99.90;;;18.95;100.00;100629.06;4152043;28;20076;-68
2021/09/08 05:00:37;;;;;;;8.85;3.95;;;19.30;99.90;;;19.04;100.00;100615.25;4151895;28;20039;-68
2021/09/08 05:02:38;;;;;;;12.77;4.75;;;19.30;99.90;;;19.04;100.00;100619.75;4151825;28;20029;-68
2021/09/08 05:04:39;;;;;;;5.65;4.32;;;19.30;99.90;;;19.00;100.00;100623.88;4151666;28;20484;-68
2021/09/08 05:06:40;;;;;;;6.40;4.25;;;19.20;99.90;;;18.98;100.00;100628.63;4151921;28;20033;-68
2021/09/08 05:08:41;;;;;;;9.90;4.30;;;19.20;99.90;;;18.97;100.00;100643.03;4151749;28;20405;-68
2021/09/08 05:10:42;;;;;;;6.10;4.38;;;19.20;99.90;;;18.93;100.00;100660.53;4151785;28;20037;-68
2021/09/08 05:12:43;;;;;;;9.10;5.03;;;19.20;99.90;;;19.00;100.00;100661.31;4152251;28;20041;-68
2021/09/08 05:14:44;;;;;;;7.15;4.82;;;19.20;99.90;;;18.94;100.00;100664.84;4151919;28;20205;-67
2021/09/08 05:16:45;;;;;;;6.53;4.18;;;19.10;99.90;;;18.87;100.00;100664.88;4151770;28;20065;-68
2021/09/08 05:18:46;;;;;;;7.38;4.35;;;19.10;99.90;;;18.83;100.00;100671.69;4151705;28;20034;-68
2021/09/08 05:20:47;;;;;;;6.13;4.35;;;19.10;99.90;;;18.89;100.00;100668.16;4151081;28;20041;-68
2021/09/08 05:22:47;;;;;;;8.05;4.70;;;19.10;99.90;;;18.97;100.00;100664.41;4151578;28;20065;-68
2021/09/08 05:24:48;;;;;;;8.80;5.07;;;19.10;99.90;;;19.01;100.00;100673.66;4151744;28;20057;-68
2021/09/08 05:26:49;;;;;;;6.97;4.43;;;19.20;99.90;;;19.06;100.00;100660.47;4151720;28;20026;-68
2021/09/08 05:28:50;;;;;;;6.65;4.20;;;19.20;99.90;;;19.06;100.00;100650.59;4152023;28;20037;-68
2021/09/08 05:30:51;;;;;;;7.00;4.07;;;19.20;99.90;;;19.04;100.00;100619.75;4151820;28;20030;-68
2021/09/08 05:32:52;;;;;;;6.93;4.47;;;19.20;99.90;;;18.98;100.00;100624.13;4151845;28;20088;-68
2021/09/08 05:34:55;;;;;;;6.25;4.07;;;19.20;99.90;;;18.85;100.00;100613.47;4151740;28;20037;-68
2021/09/08 05:36:56;;;;;;;6.95;4.15;;;19.20;99.90;;;18.81;100.00;100611.47;4151734;28;20030;-68
2021/09/08 05:38:57;;;;;;;5.47;3.85;;;19.10;99.90;;;18.84;100.00;100595.81;4153099;28;20046;-68
2021/09/08 05:40:58;;;;;;;7.97;4.00;;;19.10;99.90;;;18.78;100.00;100594.00;4157543;28;20026;-68
2021/09/08 05:43:01;;;;;;;7.50;4.25;;;19.00;99.90;;;18.78;100.00;100613.53;4151501;28;20057;-68
2021/09/08 05:45:03;;;;;;;8.20;3.85;;;19.00;99.90;;;18.70;100.00;100619.09;4151643;28;20032;-67
2021/09/08 05:47:04;;;;;;;8.68;4.50;;;19.00;99.90;;;18.78;100.00;100626.91;4151460;28;20030;-68
2021/09/08 05:49:05;;;;;;;6.18;4.20;;;19.00;99.90;;;18.75;100.00;100629.16;4151640;28;20030;-69
2021/09/08 05:51:06;;;;;;;6.25;4.55;;;19.00;99.90;;;18.74;100.00;100623.00;4151495;28;20437;-68
2021/09/08 05:53:07;;;;;;;5.97;3.85;;;18.90;99.90;;;18.84;100.00;100648.44;4152597;28;20033;-68
2021/09/08 05:55:09;;;;;;;4.30;3.45;;;19.00;99.90;;;18.68;100.00;100676.47;4154498;28;20040;-68
2021/09/08 05:57:10;;;;;;;5.68;3.88;;;19.00;99.90;;;18.67;100.00;100693.50;4154350;28;20029;-68
2021/09/08 05:59:11;;;;;;;4.18;3.38;;;18.90;99.90;;;18.62;100.00;100675.44;4154242;28;20068;-68
2021/09/08 06:01:12;;;;;;;5.95;4.05;;;18.90;99.90;;;18.64;100.00;100676.06;4154449;28;20124;-67
2021/09/08 06:03:13;;;;;;;5.13;3.90;;;18.90;99.90;;;18.56;100.00;100656.75;4154386;28;20054;-68
2021/09/08 06:05:14;;;;;;;7.30;4.13;;;18.90;99.90;;;18.60;100.00;100645.47;4154224;28;20026;-68
2021/09/08 06:07:15;;;;;;;9.43;3.60;;;18.90;99.90;;;18.60;100.00;100650.81;4153912;28;20106;-68
2021/09/08 06:09:16;;;;;;;4.80;3.45;;;18.90;99.90;;;18.53;100.00;100655.34;4154395;28;20037;-68
2021/09/08 06:11:17;;;;;;;6.05;3.75;;;18.80;99.90;;;18.50;100.00;100641.56;4169297;28;20030;-68
2021/09/08 06:13:17;;;;;;;5.30;3.75;;;18.80;99.90;;;18.55;100.00;100642.56;4154064;28;20103;-68
2021/09/08 06:15:20;;;;;;;5.13;3.40;;;18.80;99.90;;;18.53;100.00;100623.28;4154097;28;20492;-68
2021/09/08 06:17:22;;;;;;;5.00;3.72;;;18.90;99.90;;;18.56;100.00;100644.22;4154309;28;20656;-68
2021/09/08 06:19:22;;;;;;;4.43;3.38;;;18.80;99.90;;;18.49;100.00;100635.41;4150208;28;20116;-68
2021/09/08 06:21:24;;;;;;;4.57;3.65;;;18.80;99.90;;;18.59;100.00;100651.81;4146260;28;20097;-68
2021/09/08 06:23:25;;;;;;;4.65;3.22;;;18.80;99.90;;;18.52;100.00;100643.00;4153770;28;20492;-68
2021/09/08 06:25:26;;;;;;;6.38;3.70;;;18.80;99.90;;;18.48;100.00;100639.09;4153994;28;20061;-68
2021/09/08 06:27:27;;;;;;;4.55;3.30;;;18.80;99.90;;;18.48;100.00;100641.75;4154139;28;20108;-68
2021/09/08 06:29:28;;;;;;;4.93;3.22;;;18.70;99.90;;;18.43;100.00;100638.09;4154063;28;20026;-68
2021/09/08 06:31:29;;;;;;;3.92;3.17;;;18.70;99.90;;;18.44;100.00;100647.72;4153665;28;20370;-70
2021/09/08 06:33:30;;;;;;;5.65;3.70;;;18.70;99.90;;;18.50;100.00;100658.41;4153679;28;20079;-68
2021/09/08 06:35:31;;;;;;;3.35;2.85;;;18.70;99.90;;;18.42;100.00;100657.81;4153677;28;20025;-69
2021/09/08 06:37:32;;;;;;;5.05;3.70;;;18.70;99.90;;;18.49;100.00;100683.47;4153261;28;20049;-68
2021/09/08 06:39:33;;;;;;;8.35;4.10;;;18.70;99.90;;;18.58;100.00;100692.09;4153718;28;20477;-68
2021/09/08 06:41:34;;;;;;;3.83;3.22;;;18.80;99.90;;;18.52;100.00;100695.59;4153442;28;20080;-69
2021/09/08 06:43:34;;;;;;;6.72;3.90;;;18.80;99.90;;;18.50;100.00;100682.47;4153708;28;20030;-69
2021/09/08 06:45:35;;;;;;;7.80;4.38;;;18.80;99.90;;;18.70;100.00;100704.59;4153457;28;20024;-69
2021/09/08 06:47:36;;;;;;;3.58;3.05;;;18.80;99.90;;;18.65;100.00;100706.28;4153833;28;20101;-69
2021/09/08 06:49:37;;;;;;;3.53;2.70;;;18.80;99.90;;;18.59;100.00;100705.25;4152503;28;20056;-69
2021/09/08 06:51:38;;;;;;;4.32;3.30;;;18.80;99.90;;;18.59;100.00;100705.25;4147087;28;20025;-69
2021/09/08 06:53:39;;;;;;;4.78;3.05;;;18.90;99.90;;;18.56;100.00;100696.84;4153433;28;20041;-69
2021/09/08 06:55:40;;;;;;;5.45;3.80;;;18.90;99.90;;;18.55;100.00;100685.31;4153502;28;20025;-69
2021/09/08 06:57:41;;;;;;;4.30;3.00;;;18.90;99.90;;;18.60;100.00;100674.84;4153237;28;20022;-69
2021/09/08 06:59:43;;;;;;;5.30;3.70;;;18.90;99.90;;;18.59;100.00;100659.00;4153435;28;20026;-69
2021/09/08 07:01:44;;;;;;;5.13;3.85;;;18.90;99.90;;;18.64;100.00;100654.69;4151932;28;20033;-69
2021/09/08 07:03:45;;;;;;;4.30;3.38;;;19.00;99.90;;;18.69;100.00;100660.22;4167829;28;20018;-69
2021/09/08 07:05:46;;;;;;;3.90;3.38;;;19.00;99.90;;;18.77;100.00;100670.69;4142831;28;20481;-70
2021/09/08 07:07:48;;;;;;;5.07;3.50;;;19.10;99.90;;;18.77;100.00;100677.88;4149449;28;20131;-70
2021/09/08 07:09:49;;;;;;;7.63;4.15;;;19.10;99.90;;;18.79;100.00;100684.63;4152537;28;20038;-70
2021/09/08 07:11:50;;;;;;;6.18;3.33;;;19.10;99.90;;;18.80;100.00;100677.44;4152959;28;20087;-69
2021/09/08 07:13:51;;;;;;;6.30;3.45;;;19.20;99.90;;;18.85;100.00;100684.81;4152020;28;20559;-69
2021/09/08 07:15:52;;;;;;;5.10;3.05;;;19.20;99.90;;;18.88;100.00;100687.06;4145625;28;20054;-69
2021/09/08 07:17:53;;;;;;;5.40;3.30;;;19.20;99.90;;;18.88;100.00;100679.06;4153260;28;20034;-69
2021/09/08 07:19:54;;;;;;;4.07;3.00;;;19.30;99.90;;;18.99;100.00;100687.25;4153052;28;20028;-69
2021/09/08 07:21:55;;;;;;;6.22;3.85;;;19.40;99.90;;;19.05;100.00;100696.28;4152939;28;20077;-69
2021/09/08 07:23:56;;;;;;;5.85;3.83;;;19.50;99.90;;;19.13;100.00;100690.69;4153040;28;20029;-69
2021/09/08 07:25:57;;;;;;;6.13;3.88;;;19.50;99.90;;;19.19;100.00;100690.66;4153077;28;20404;-69
2021/09/08 07:27:58;;;;;;;4.63;3.65;;;19.60;99.90;;;19.22;100.00;100686.72;4154802;28;20032;-69
2021/09/08 07:29:58;;;;;;;3.97;3.22;;;19.70;99.90;;;19.21;100.00;100695.78;4151276;28;20178;-70
2021/09/08 07:32:00;;;;;;;4.05;3.35;;;19.70;99.90;;;19.24;100.00;100692.69;4144043;28;20042;-70
2021/09/08 07:34:00;;;;;;;7.05;3.50;;;19.70;99.90;;;19.26;100.00;100687.94;4152288;28;20061;-70
2021/09/08 07:36:02;;;;;;;5.80;3.50;;;19.70;99.90;;;19.22;100.00;100686.72;4151700;28;20029;-70
2021/09/08 07:38:03;;;;;;;6.10;3.65;;;19.70;99.90;;;19.35;100.00;100687.47;4152361;28;20054;-70
2021/09/08 07:40:08;;;;;;;7.38;3.85;;;19.70;99.90;;;19.34;100.00;100685.84;4152663;28;20026;-70
2021/09/08 07:42:09;;;;;;;5.90;4.20;;;19.70;99.90;;;19.43;100.00;100677.59;4152473;28;20034;-70
2021/09/08 07:44:10;;;;;;;8.18;3.67;;;19.80;99.90;;;19.42;100.00;100684.78;4152692;28;20032;-70
2021/09/08 07:46:11;;;;;;;5.47;3.90;;;19.80;99.90;;;19.47;100.00;100674.28;4152751;28;20029;-70
2021/09/08 07:48:13;;;;;;;3.78;3.45;;;19.80;99.90;;;19.51;100.00;100675.47;4152914;28;20444;-70
2021/09/08 07:50:15;;;;;;;5.00;3.50;;;19.80;99.90;;;19.48;100.00;100675.06;4152746;28;20048;-70
2021/09/08 07:52:16;;;;;;;3.22;2.60;;;19.80;99.90;;;19.38;100.00;100664.03;4152236;28;20152;-70
2021/09/08 07:54:17;;;;;;;5.97;3.28;;;19.80;99.90;;;19.64;100.00;100663.88;4152741;28;20030;-70
2021/09/08 07:56:19;;;;;;;5.97;3.22;;;19.90;99.90;;;19.65;100.00;100660.16;4152519;28;20034;-70
2021/09/08 07:58:20;;;;;;;5.60;2.80;;;20.00;99.90;;;19.56;100.00;100667.59;4152546;28;20034;-70
2021/09/08 08:00:21;;;;;;;5.90;3.22;;;19.90;99.90;;;19.55;100.00;100671.34;4152484;28;20022;-70
2021/09/08 08:02:22;;;;;;;2.97;2.63;;;20.00;99.90;;;19.60;100.00;100668.00;4152513;28;20036;-70
2021/09/08 08:04:24;;;;;;;6.35;2.95;;;20.00;99.90;;;19.81;100.00;100686.38;4151256;28;20498;-69
2021/09/08 08:06:25;;;;;;;5.70;3.15;;;20.10;99.90;;;19.87;100.00;100680.97;4162420;28;20038;-69
2021/09/08 08:08:26;;;;;;;5.65;2.70;;;20.10;99.90;;;19.91;100.00;100697.44;4150063;28;20029;-69
2021/09/08 08:10:28;;;;;;;4.88;2.90;;;20.20;99.90;;;19.94;100.00;100698.84;4152553;28;20025;-69
2021/09/08 08:12:29;;;;;;;4.65;2.70;;;20.20;99.90;;;19.82;100.00;100701.41;4152063;28;20104;-69
2021/09/08 08:14:30;;;;;;;3.78;2.97;;;20.20;99.90;;;19.85;100.00;100693.78;4152379;28;20033;-69
2021/09/08 08:16:32;;;;;;;5.55;2.58;;;20.30;99.90;;;19.81;100.00;100687.22;4151700;28;20528;-69
2021/09/08 08:18:33;;;;;;;4.03;2.55;;;20.30;99.90;;;19.90;100.00;100701.13;4151183;28;20055;-69